Time;durP1;ratioP1;P1;durP2;ratioP2;P2;SDS_P1;SDS_P2;PMS_P1;PMS_P2;Temp;Humidity;BMP_temperature;BMP_pressure;BME280_temperature;BME280_humidity;BME280_pressure;Samples;Min_cycle;Max_cycle;Signal;HPM_P1;HPM_P2
2024/01/01 00:00:37;;;;;;;77.97;50.67;;;;;;;16.86;47.83;99728.91;4956496;28;20442;-43
2024/01/01 00:03:04;;;;;;;72.97;47.42;;;;;;;16.83;47.39;99713.19;4960015;28;20058;-42
2024/01/01 00:05:30;;;;;;;72.53;48.38;;;;;;;16.81;47.79;99704.50;4956932;28;20055;-44
2024/01/01 00:07:57;;;;;;;68.28;46.92;;;;;;;16.81;47.86;99704.50;4962737;28;20281;-43
2024/01/01 00:10:24;;;;;;;72.88;47.80;;;;;;;16.79;47.71;99712.69;4962744;28;20442;-42
2024/01/01 00:12:51;;;;;;;65.28;47.10;;;;;;;16.76;47.79;99713.88;4961124;28;20054;-42
2024/01/01 00:15:18;;;;;;;70.35;45.10;;;;;;;16.76;47.82;99718.38;4961821;28;20058;-41
2024/01/01 00:17:45;;;;;;;65.65;43.38;;;;;;;16.75;48.01;99712.19;4959977;28;20050;-42
2024/01/01 00:20:12;;;;;;;59.58;41.90;;;;;;;16.74;48.23;99709.72;4965448;28;20046;-42
2024/01/01 00:22:39;;;;;;;59.03;40.35;;;;;;;16.73;48.52;99706.19;4959559;28;20220;-42
2024/01/01 00:25:06;;;;;;;58.85;38.72;;;;;;;16.74;47.76;99697.16;4959474;28;20051;-41
2024/01/01 00:27:35;;;;;;;58.45;38.38;;;;;;;16.72;48.62;99691.13;4956785;28;20055;-41
2024/01/01 00:30:02;;;;;;;52.92;34.78;;;;;;;16.70;48.57;99698.47;4955558;28;20051;-42
2024/01/01 00:32:28;;;;;;;53.60;35.00;;;;;;;16.68;47.57;99705.84;4960714;28;20051;-42
2024/01/01 00:34:55;;;;;;;56.15;37.30;;;;;;;16.67;48.31;99722.91;4957640;28;20134;-42
2024/01/01 00:37:22;;;;;;;49.70;32.50;;;;;;;16.66;48.47;99707.84;4953130;28;20055;-43
2024/01/01 00:39:49;;;;;;;44.47;30.52;;;;;;;16.63;48.01;99710.88;4961758;28;20561;-44
2024/01/01 00:42:15;;;;;;;42.70;30.50;;;;;;;16.63;47.51;99702.00;4959162;28;20370;-43
2024/01/01 00:44:44;;;;;;;42.00;28.85;;;;;;;16.62;48.47;99705.69;4956188;28;20063;-42
2024/01/01 00:47:11;;;;;;;38.20;27.08;;;;;;;16.60;48.14;99716.56;4961818;28;20526;-43
2024/01/01 00:49:38;;;;;;;36.72;26.35;;;;;;;16.60;47.88;99708.53;4960735;28;20125;-44
2024/01/01 00:52:05;;;;;;;37.97;25.95;;;;;;;16.59;48.33;99703.38;4963233;28;20059;-43
2024/01/01 00:54:31;;;;;;;37.13;25.15;;;;;;;16.63;48.35;99713.53;4962596;28;20426;-40
2024/01/01 00:56:59;;;;;;;39.58;25.27;;;;;;;16.75;47.82;99706.84;4961142;28;20109;-41
2024/01/01 00:59:25;;;;;;;35.80;24.85;;;;;;;16.89;48.01;99707.97;4959990;28;20402;-42
2024/01/01 01:01:52;;;;;;;36.47;24.00;;;;;;;17.03;47.32;99711.75;4959090;28;20370;-42
2024/01/01 01:04:19;;;;;;;35.92;23.00;;;;;;;17.14;47.29;99697.97;4959210;28;20050;-43
2024/01/01 01:06:46;;;;;;;33.50;21.65;;;;;;;17.22;47.29;99700.59;4960157;28;20438;-43
2024/01/01 01:09:12;;;;;;;29.73;20.80;;;;;;;17.31;47.14;99712.09;4959330;28;20054;-43
2024/01/01 01:11:40;;;;;;;31.67;20.38;;;;;;;17.41;47.02;99717.25;4958790;28;20046;-43
2024/01/01 01:14:07;;;;;;;27.60;18.90;;;;;;;17.49;46.10;99706.47;4956291;28;20267;-42
2024/01/01 01:16:35;;;;;;;28.75;19.48;;;;;;;17.55;46.25;99721.00;4958298;28;20418;-43
2024/01/01 01:19:02;;;;;;;26.38;18.00;;;;;;;17.63;46.31;99720.94;4954979;28;20059;-44
2024/01/01 01:21:29;;;;;;;25.88;17.98;;;;;;;17.68;46.41;99726.59;4962086;28;20466;-43
2024/01/01 01:23:57;;;;;;;25.00;16.70;;;;;;;17.72;46.38;99703.78;4958092;28;20075;-42
2024/01/01 01:26:24;;;;;;;25.33;16.40;;;;;;;17.74;45.71;99716.03;4960103;28;20592;-43
2024/01/01 01:28:51;;;;;;;26.13;16.45;;;;;;;17.75;45.76;99712.34;4957304;28;20051;-43
2024/01/01 01:31:18;;;;;;;21.58;14.98;;;;;;;17.76;45.98;99727.38;4958364;28;20126;-43
2024/01/01 01:33:44;;;;;;;21.42;14.70;;;;;;;17.78;45.87;99734.44;4960105;28;20125;-43
2024/01/01 01:36:13;;;;;;;22.45;13.95;;;;;;;17.79;45.82;99733.41;4960917;28;20057;-42
2024/01/01 01:38:40;;;;;;;19.15;13.32;;;;;;;17.79;45.56;99714.66;4963351;28;20501;-43
2024/01/01 01:41:07;;;;;;;22.13;13.30;;;;;;;17.78;45.78;99729.91;4960329;28;20047;-42
2024/01/01 01:43:34;;;;;;;19.60;13.00;;;;;;;17.78;45.36;99743.31;4960668;28;20065;-43
2024/01/01 01:46:02;;;;;;;18.50;12.40;;;;;;;17.78;45.77;99740.63;4961039;28;20347;-44
2024/01/01 01:48:29;;;;;;;16.20;11.70;;;;;;;17.78;45.77;99735.28;4957960;28;20207;-42
2024/01/01 01:50:56;;;;;;;16.40;11.57;;;;;;;17.78;46.00;99734.44;4960037;28;20161;-42
2024/01/01 01:53:24;;;;;;;18.00;10.60;;;;;;;17.78;45.88;99753.19;4958956;28;20110;-41
2024/01/01 01:55:55;;;;;;;15.82;10.15;;;;;;;17.79;45.64;99752.19;4956388;28;20055;-43
2024/01/01 01:58:22;;;;;;;16.85;10.38;;;;;;;17.82;45.88;99747.31;4961721;28;20134;-42
2024/01/01 02:00:50;;;;;;;14.38;10.27;;;;;;;17.86;45.34;99755.81;4960475;28;20646;-42
2024/01/01 02:03:17;;;;;;;15.00;9.75;;;;;;;17.90;45.62;99752.59;4956784;28;20055;-45
2024/01/01 02:05:44;;;;;;;14.40;9.77;;;;;;;17.95;45.33;99758.25;4961777;28;20055;-43
2024/01/01 02:08:11;;;;;;;15.45;9.52;;;;;;;18.00;45.06;99765.75;4959694;28;20051;-43
2024/01/01 02:10:38;;;;;;;12.20;8.63;;;;;;;18.04;44.94;99772.41;4958318;28;20055;-43
2024/01/01 02:13:05;;;;;;;16.48;8.73;;;;;;;18.08;45.62;99771.03;4958970;28;20051;-43
2024/01/01 02:15:31;;;;;;;11.70;7.75;;;;;;;18.12;45.54;99763.47;4961017;28;20058;-43
2024/01/01 02:17:58;;;;;;;10.68;7.43;;;;;;;18.14;45.43;99764.97;4958228;28;20454;-43
2024/01/01 02:20:25;;;;;;;12.63;7.43;;;;;;;18.15;45.30;99755.91;4961143;28;20346;-42
2024/01/01 02:22:56;;;;;;;10.38;7.18;;;;;;;18.18;45.01;99763.59;4961413;28;20129;-43
2024/01/01 02:25:23;;;;;;;10.63;6.72;;;;;;;18.19;45.45;99767.94;4969711;28;20438;-43
2024/01/01 02:27:49;;;;;;;10.10;6.85;;;;;;;18.20;45.20;99763.41;4956978;28;20082;-43
2024/01/01 02:30:16;;;;;;;11.70;7.32;;;;;;;18.20;45.31;99756.19;4955732;28;20137;-43
2024/01/01 02:32:43;;;;;;;12.32;7.07;;;;;;;18.19;45.02;99761.75;4957728;28;20520;-43
2024/01/01 02:35:10;;;;;;;10.68;7.13;;;;;;;18.18;45.22;99757.41;4959120;28;20510;-43
2024/01/01 02:37:37;;;;;;;11.15;6.80;;;;;;;18.17;45.30;99748.53;4958409;28;20055;-42
2024/01/01 02:40:05;;;;;;;12.30;6.60;;;;;;;18.15;45.42;99758.59;4959302;28;20458;-42
2024/01/01 02:42:32;;;;;;;10.52;6.45;;;;;;;18.13;45.31;99751.72;4962872;28;20051;-42
2024/01/01 02:44:59;;;;;;;9.68;5.50;;;;;;;18.11;45.30;99753.78;4958945;28;20461;-42
2024/01/01 02:47:25;;;;;;;11.05;6.20;;;;;;;18.09;45.09;99743.25;4958364;28;20055;-44
2024/01/01 02:49:52;;;;;;;9.60;5.65;;;;;;;18.07;45.63;99753.28;4958140;28;20646;-42
2024/01/01 02:52:19;;;;;;;10.00;5.32;;;;;;;18.07;45.26;99761.34;4960748;28;20046;-44
2024/01/01 02:54:45;;;;;;;9.05;6.22;;;;;;;18.06;45.33;99761.53;4955591;28;20091;-43
2024/01/01 02:57:12;;;;;;;10.27;5.55;;;;;;;18.06;45.77;99754.31;4959729;28;20193;-43
2024/01/01 02:59:40;;;;;;;9.68;5.40;;;;;;;18.08;45.29;99762.16;4959817;28;20415;-44
2024/01/01 03:02:09;;;;;;;9.23;4.72;;;;;;;18.12;45.36;99760.78;4958090;28;20047;-44
2024/01/01 03:04:36;;;;;;;7.85;4.63;;;;;;;18.14;45.23;99761.47;4957487;28;20055;-44
2024/01/01 03:07:03;;;;;;;7.80;4.93;;;;;;;18.18;45.43;99760.09;4959104;28;20055;-44
2024/01/01 03:09:30;;;;;;;8.32;4.55;;;;;;;18.22;45.16;99750.66;4960741;28;20130;-44
2024/01/01 03:11:56;;;;;;;8.57;4.85;;;;;;;18.25;45.05;99761.00;4960947;28;20050;-43
2024/01/01 03:14:23;;;;;;;10.27;5.20;;;;;;;18.30;45.27;99760.50;4962385;28;20050;-43
2024/01/01 03:16:50;;;;;;;9.00;4.97;;;;;;;18.33;45.13;99755.59;4959117;28;20126;-43
2024/01/01 03:19:17;;;;;;;7.50;4.22;;;;;;;18.35;45.26;99761.59;4961444;28;20439;-43
2024/01/01 03:21:43;;;;;;;9.18;4.80;;;;;;;18.36;45.37;99749.84;4959542;28;20132;-42
2024/01/01 03:24:10;;;;;;;6.97;4.10;;;;;;;18.38;45.22;99757.72;4960287;28;20065;-43
2024/01/01 03:26:37;;;;;;;8.85;4.28;;;;;;;18.36;45.35;99754.38;4959062;28;20423;-43
2024/01/01 03:29:03;;;;;;;8.25;4.10;;;;;;;18.34;45.17;99751.06;4960338;28;20628;-43
2024/01/01 03:31:30;;;;;;;7.97;4.05;;;;;;;18.31;45.47;99762.16;4959069;28;20047;-43
2024/01/01 03:33:56;;;;;;;6.47;3.78;;;;;;;18.27;45.37;99761.69;4958240;28;20522;-43
2024/01/01 03:36:23;;;;;;;7.88;4.25;;;;;;;18.22;45.46;99762.22;4960405;28;20347;-43
2024/01/01 03:38:50;;;;;;;8.52;4.10;;;;;;;18.19;45.57;99765.25;4959374;28;20130;-43
2024/01/01 03:41:17;;;;;;;9.48;4.10;;;;;;;18.15;45.65;99753.22;4959860;28;20047;-43
2024/01/01 03:43:43;;;;;;;9.93;4.20;;;;;;;18.11;45.60;99762.66;4960652;28;20247;-43
2024/01/01 03:46:10;;;;;;;7.85;4.07;;;;;;;18.06;45.44;99761.53;4965201;28;20432;-43
2024/01/01 03:48:37;;;;;;;6.82;3.22;;;;;;;17.99;45.95;99758.72;4958895;28;20066;-43
2024/01/01 03:51:04;;;;;;;9.88;3.80;;;;;;;17.93;45.99;99748.72;4962987;28;20439;-43
2024/01/01 03:53:31;;;;;;;7.45;3.50;;;;;;;17.85;45.89;99757.69;4963538;28;20374;-44
2024/01/01 03:55:58;;;;;;;7.47;3.53;;;;;;;17.81;45.72;99769.75;4963303;28;20058;-44
2024/01/01 03:58:25;;;;;;;7.88;3.13;;;;;;;17.74;46.02;99761.59;4962124;28;21077;-43
2024/01/01 04:00:51;;;;;;;10.73;3.80;;;;;;;17.66;46.45;99772.34;4958389;28;20145;-42
2024/01/01 04:03:18;;;;;;;11.23;3.65;;;;;;;17.60;46.53;99769.53;4959312;28;20059;-41
2024/01/01 04:05:44;;;;;;;8.50;3.35;;;;;;;17.52;46.85;99770.41;4962353;28;20046;-42
2024/01/01 04:08:11;;;;;;;9.15;3.80;;;;;;;17.44;46.90;99792.72;4963815;28;20082;-43
2024/01/01 04:10:38;;;;;;;8.13;3.30;;;;;;;17.40;46.73;99803.94;4959876;28;20542;-43
2024/01/01 04:13:05;;;;;;;7.57;3.45;;;;;;;17.35;47.27;99795.63;4956837;28;20074;-43
2024/01/01 04:15:31;;;;;;;8.32;3.58;;;;;;;17.36;47.17;99795.44;4963217;28;20066;-43
2024/01/01 04:17:58;;;;;;;9.57;3.55;;;;;;;17.42;47.36;99804.63;4960216;28;20058;-42
2024/01/01 04:20:25;;;;;;;8.48;3.42;;;;;;;17.51;47.25;99804.41;4960098;28;20110;-43
2024/01/01 04:22:52;;;;;;;10.15;3.53;;;;;;;17.63;46.90;99802.16;4962283;28;20105;-44
2024/01/01 04:25:19;;;;;;;6.55;3.28;;;;;;;17.73;47.00;99797.41;4963406;28;20061;-42
2024/01/01 04:27:46;;;;;;;5.93;3.40;;;;;;;17.83;46.63;99801.75;4961067;28;20410;-44
2024/01/01 04:30:13;;;;;;;7.45;3.00;;;;;;;17.91;46.32;99804.38;4962546;28;20054;-43
2024/01/01 04:32:40;;;;;;;7.90;3.95;;;;;;;17.98;46.63;99797.28;4959227;28;20078;-43
2024/01/01 04:35:07;;;;;;;9.15;3.38;;;;;;;18.05;46.47;99800.06;4961442;28;20050;-43
2024/01/01 04:37:34;;;;;;;5.45;2.97;;;;;;;18.10;46.54;99803.06;4962378;28;20497;-43
2024/01/01 04:40:00;;;;;;;6.85;3.20;;;;;;;18.12;46.34;99795.66;4963111;28;20059;-41
2024/01/01 04:42:27;;;;;;;7.43;2.88;;;;;;;18.13;46.08;99808.91;4960051;28;20121;-43
2024/01/01 04:44:54;;;;;;;7.95;3.08;;;;;;;18.11;46.35;99810.91;4958890;28;20117;-43
2024/01/01 04:47:22;;;;;;;6.95;3.10;;;;;;;18.08;46.12;99810.44;4963081;28;20051;-43
2024/01/01 04:49:49;;;;;;;7.65;2.53;;;;;;;18.05;45.90;99826.88;4960000;28;20061;-43
2024/01/01 04:52:15;;;;;;;8.82;3.22;;;;;;;18.01;45.83;99823.75;4961988;28;20354;-43
2024/01/01 04:54:42;;;;;;;8.63;2.90;;;;;;;17.99;46.32;99823.06;4962119;28;20051;-43
2024/01/01 04:57:09;;;;;;;7.40;2.97;;;;;;;17.93;46.04;99826.44;4958367;28;20061;-42
2024/01/01 04:59:35;;;;;;;6.07;2.72;;;;;;;17.89;46.43;99830.50;4956615;28;20055;-43
2024/01/01 05:02:02;;;;;;;7.80;2.90;;;;;;;17.84;46.57;99830.22;4962201;28;20173;-43
2024/01/01 05:04:28;;;;;;;7.50;2.70;;;;;;;17.78;46.38;99839.81;4964589;28;20082;-43
2024/01/01 05:06:55;;;;;;;7.57;3.03;;;;;;;17.72;46.92;99841.28;4964016;28;20395;-43
2024/01/01 05:09:22;;;;;;;7.90;2.60;;;;;;;17.65;46.92;99848.38;4963837;28;20113;-42
2024/01/01 05:11:48;;;;;;;7.80;2.90;;;;;;;17.60;46.97;99833.81;4963297;28;20276;-42
2024/01/01 05:14:15;;;;;;;8.10;2.70;;;;;;;17.54;46.82;99830.00;4964651;28;20051;-42
2024/01/01 05:16:46;;;;;;;6.93;2.75;;;;;;;17.48;46.67;99834.22;4965558;28;20061;-43
2024/01/01 05:19:14;;;;;;;8.10;3.22;;;;;;;17.43;47.09;99841.13;4967671;28;20051;-43
2024/01/01 05:21:41;;;;;;;7.90;2.92;;;;;;;17.37;47.71;99844.50;4966930;28;20121;-43
2024/01/01 05:24:07;;;;;;;6.65;2.83;;;;;;;17.39;47.45;99855.88;4966553;28;20072;-42
2024/01/01 05:26:34;;;;;;;7.95;2.88;;;;;;;17.45;47.39;99865.91;4964172;28;20051;-43
2024/01/01 05:29:00;;;;;;;8.20;2.65;;;;;;;17.53;47.43;99865.88;4964523;28;20541;-43
2024/01/01 05:31:27;;;;;;;6.85;2.80;;;;;;;17.64;47.39;99862.78;4964946;28;20062;-43
2024/01/01 05:33:54;;;;;;;7.32;2.20;;;;;;;17.75;47.33;99873.13;4965350;28;20497;-43
2024/01/01 05:36:20;;;;;;;9.02;2.42;;;;;;;17.86;47.01;99879.13;4959499;28;20330;-42
2024/01/01 05:38:47;;;;;;;5.53;2.42;;;;;;;17.93;46.75;99880.06;4961583;28;20054;-43
2024/01/01 05:41:14;;;;;;;8.25;2.70;;;;;;;18.02;46.59;99862.13;4958852;28;20525;-44
2024/01/01 05:43:40;;;;;;;5.75;2.25;;;;;;;18.07;46.70;99881.19;4958052;28;20165;-44
2024/01/01 05:46:07;;;;;;;8.13;2.42;;;;;;;18.12;46.25;99879.63;4963121;28;20058;-43
2024/01/01 05:48:34;;;;;;;4.95;2.40;;;;;;;18.16;46.51;99883.63;4963081;28;20062;-44
2024/01/01 05:51:07;;;;;;;5.80;2.55;;;;;;;18.19;46.54;99885.13;4961717;28;20553;-43
2024/01/01 05:53:34;;;;;;;7.85;2.63;;;;;;;18.18;46.12;99884.28;4962268;28;20047;-43
2024/01/01 05:56:02;;;;;;;6.55;2.40;;;;;;;18.17;46.37;99888.00;4961287;28;20141;-42
2024/01/01 05:58:29;;;;;;;5.13;2.30;;;;;;;18.16;46.36;99891.66;4961393;28;20133;-42
2024/01/01 06:00:55;;;;;;;7.55;2.95;;;;;;;18.14;46.14;99896.38;4961917;28;20458;-44
2024/01/01 06:03:22;;;;;;;5.07;2.50;;;;;;;18.10;46.33;99903.13;4961409;28;20050;-42
2024/01/01 06:05:49;;;;;;;7.78;2.40;;;;;;;18.08;46.19;99905.13;4958845;28;20054;-43
2024/01/01 06:08:16;;;;;;;7.78;2.17;;;;;;;18.04;46.13;99917.22;4960093;28;20059;-41
2024/01/01 06:10:42;;;;;;;5.28;2.03;;;;;;;18.01;46.24;99920.28;4958191;28;20506;-43
2024/01/01 06:13:09;;;;;;;8.63;2.60;;;;;;;17.95;46.37;99920.97;4959592;28;20046;-42
2024/01/01 06:15:36;;;;;;;8.48;2.67;;;;;;;17.92;46.61;99918.63;4957934;28;20453;-42
2024/01/01 06:18:02;;;;;;;8.80;2.25;;;;;;;17.85;46.25;99926.53;4956568;28;20059;-42
2024/01/01 06:20:30;;;;;;;6.80;2.35;;;;;;;17.82;46.79;99937.59;4961581;28;20059;-42
2024/01/01 06:22:56;;;;;;;6.30;2.28;;;;;;;17.76;46.47;99935.63;4960002;28;20059;-43
2024/01/01 06:25:23;;;;;;;4.40;1.92;;;;;;;17.70;46.75;99953.19;4958317;28;20055;-43
2024/01/01 06:27:50;;;;;;;7.65;2.53;;;;;;;17.64;46.83;99959.25;4956440;28;20047;-43
2024/01/01 06:30:17;;;;;;;7.63;2.90;;;;;;;17.59;47.36;99961.59;4957464;28;20477;-42
2024/01/01 06:32:43;;;;;;;10.77;2.53;;;;;;;17.52;47.47;99971.34;4961311;28;20051;-43
2024/01/01 06:35:10;;;;;;;7.10;2.20;;;;;;;17.46;47.47;99964.84;4957073;28;20046;-42
2024/01/01 06:37:37;;;;;;;7.22;2.38;;;;;;;17.41;47.62;99964.53;4955840;28;20050;-43
2024/01/01 06:40:06;;;;;;;4.30;2.35;;;;;;;17.37;47.76;99970.38;4962516;28;20533;-43
2024/01/01 06:42:32;;;;;;;6.60;2.20;;;;;;;17.32;47.76;99975.41;4959254;28;20050;-42
2024/01/01 06:45:06;;;;;;;10.10;2.38;;;;;;;17.26;48.30;99975.09;4958674;28;20137;-42
2024/01/01 06:47:33;;;;;;;4.68;2.28;;;;;;;17.27;47.67;99978.59;4960028;28;20054;-43
2024/01/01 06:50:00;;;;;;;10.65;2.72;;;;;;;17.33;47.99;99985.97;4960028;28;20645;-43
2024/01/01 06:52:27;;;;;;;3.55;1.77;;;;;;;17.41;47.74;99990.47;4960371;28;20051;-42
2024/01/01 06:54:53;;;;;;;4.15;1.85;;;;;;;17.53;47.88;100002.50;4956580;28;20046;-42
2024/01/01 06:57:20;;;;;;;4.95;1.92;;;;;;;17.65;47.70;100011.03;4960677;28;20485;-42
2024/01/01 06:59:46;;;;;;;4.60;1.80;;;;;;;17.75;47.39;99996.44;4958365;28;20137;-43
2024/01/01 07:02:13;;;;;;;6.30;2.10;;;;;;;17.84;46.93;100005.28;4956544;28;20054;-43
2024/01/01 07:04:39;;;;;;;4.70;1.83;;;;;;;17.93;47.09;100016.78;4959414;28;20101;-43
2024/01/01 07:07:06;;;;;;;6.60;2.03;;;;;;;18.00;47.02;100017.78;4956784;28;20054;-42
2024/01/01 07:09:33;;;;;;;4.95;2.03;;;;;;;18.07;46.91;100029.50;4956056;28;20503;-43
2024/01/01 07:12:23;;;;;;;5.43;2.08;;;;;;;18.10;46.69;100018.44;4958783;28;20071;-43
2024/01/01 07:14:50;;;;;;;3.83;2.05;;;;;;;18.15;46.63;100016.06;4958612;28;20061;-44
2024/01/01 07:17:19;;;;;;;6.38;2.60;;;;;;;18.15;46.53;100032.13;4958869;28;20419;-44
2024/01/01 07:19:46;;;;;;;7.32;2.17;;;;;;;18.16;46.71;100043.69;4959347;28;20066;-43
2024/01/01 07:22:13;;;;;;;5.55;2.05;;;;;;;18.13;46.55;100036.00;4957691;28;20423;-44
2024/01/01 07:24:41;;;;;;;3.55;1.77;;;;;;;18.10;46.90;100047.09;4960192;28;20271;-43
2024/01/01 07:27:08;;;;;;;5.13;2.00;;;;;;;18.07;46.75;100061.66;4958138;28;20059;-44
2024/01/01 07:29:35;;;;;;;4.40;1.80;;;;;;;18.04;46.74;100053.97;4954686;28;20264;-43
2024/01/01 07:32:02;;;;;;;7.60;2.08;;;;;;;18.02;46.29;100064.03;4956498;28;20051;-44
2024/01/01 07:34:28;;;;;;;6.13;1.58;;;;;;;18.00;46.87;100074.09;4956184;28;21137;-44
2024/01/01 07:36:57;;;;;;;3.28;1.73;;;;;;;17.93;47.06;100073.97;4958940;28;20402;-43
2024/01/01 07:39:25;;;;;;;4.43;1.73;;;;;;;17.91;46.95;100084.00;4957995;28;20824;-42
2024/01/01 07:41:52;;;;;;;3.55;1.50;;;;;;;17.84;47.09;100093.72;4957895;28;20366;-42
2024/01/01 07:44:19;;;;;;;4.15;1.40;;;;;;;17.83;47.00;100093.91;4959761;28;20082;-43
2024/01/01 07:46:47;;;;;;;6.28;2.00;;;;;;;17.90;47.33;100093.06;4959254;28;20058;-42
2024/01/01 07:49:15;;;;;;;5.03;1.60;;;;;;;17.99;46.89;100086.66;4958229;28;20052;-41
2024/01/01 07:51:42;;;;;;;4.30;1.67;;;;;;;18.09;47.00;100086.50;4956388;28;20173;-43
2024/01/01 07:54:10;;;;;;;4.55;1.80;;;;;;;18.18;46.65;100089.97;4956638;28;20059;-42
2024/01/01 07:56:41;;;;;;;4.18;1.70;;;;;;;18.26;46.95;100087.25;4955245;28;20540;-43
2024/01/01 07:59:08;;;;;;;4.40;1.42;;;;;;;18.35;46.66;100094.25;4957487;28;20058;-42
2024/01/01 08:01:34;;;;;;;3.80;1.50;;;;;;;18.43;46.70;100101.44;4958565;28;20061;-43
2024/01/01 08:04:01;;;;;;;4.45;2.00;;;;;;;18.51;46.50;100098.72;4956972;28;20133;-44
2024/01/01 08:06:28;;;;;;;3.75;1.63;;;;;;;18.58;46.31;100106.91;4956348;28;20247;-44
2024/01/01 08:08:54;;;;;;;5.10;1.85;;;;;;;18.66;46.62;100107.72;4957079;28;20410;-44
2024/01/01 08:11:21;;;;;;;4.00;1.73;;;;;;;18.73;46.17;100111.41;4957890;28;20513;-42
2024/01/01 08:13:47;;;;;;;3.60;1.73;;;;;;;18.80;46.27;100127.63;4957776;28;20043;-43
2024/01/01 08:16:18;;;;;;;4.18;1.58;;;;;;;18.86;46.13;100143.03;4954119;28;20043;-43
2024/01/01 08:18:47;;;;;;;4.22;1.67;;;;;;;18.92;46.53;100141.47;4956251;28;20054;-43
2024/01/01 08:21:14;;;;;;;3.70;1.30;;;;;;;18.97;46.17;100128.34;4959803;28;20046;-42
2024/01/01 08:23:41;;;;;;;3.97;1.70;;;;;;;19.05;46.26;100135.53;4959183;28;20577;-44
2024/01/01 08:26:07;;;;;;;4.03;1.58;;;;;;;19.08;46.06;100145.94;4955134;28;20101;-44
2024/01/01 08:28:34;;;;;;;6.20;1.40;;;;;;;19.13;46.29;100146.22;4961488;28;20051;-43
2024/01/01 08:31:01;;;;;;;4.18;1.60;;;;;;;19.18;46.40;100155.44;4957883;28;20075;-43
2024/01/01 08:33:27;;;;;;;4.38;1.30;;;;;;;19.22;46.19;100154.06;4954962;28;20046;-44
2024/01/01 08:35:55;;;;;;;2.65;1.38;;;;;;;19.26;46.18;100143.81;4961610;28;20086;-44
2024/01/01 08:38:23;;;;;;;4.88;1.60;;;;;;;19.31;46.02;100148.63;4960929;28;20109;-44
2024/01/01 08:40:51;;;;;;;4.47;1.50;;;;;;;19.34;45.77;100159.88;4960309;28;20323;-44
2024/01/01 08:43:18;;;;;;;4.25;1.40;;;;;;;19.38;45.98;100165.72;4956017;28;20162;-44
2024/01/01 08:45:44;;;;;;;4.85;1.77;;;;;;;19.42;45.92;100175.09;4961306;28;20137;-44
2024/01/01 08:48:11;;;;;;;3.00;1.15;;;;;;;19.45;45.46;100169.34;4959940;28;20054;-44
2024/01/01 08:50:38;;;;;;;4.15;1.35;;;;;;;19.48;45.36;100172.50;4958217;28;20050;-43
2024/01/01 08:53:04;;;;;;;3.75;1.30;;;;;;;19.51;45.45;100179.38;4960019;28;20481;-44
2024/01/01 08:55:31;;;;;;;4.00;1.63;;;;;;;19.54;45.57;100180.84;4958270;28;20070;-44
2024/01/01 08:57:57;;;;;;;2.58;1.27;;;;;;;19.57;45.82;100192.09;4956629;28;20818;-44
2024/01/01 09:00:26;;;;;;;2.95;1.23;;;;;;;19.60;45.25;100182.84;4958951;28;20061;-43
2024/01/01 09:02:52;;;;;;;3.00;1.52;;;;;;;19.63;45.87;100188.72;4959257;28;20054;-43
2024/01/01 09:05:19;;;;;;;4.35;1.83;;;;;;;19.66;46.11;100192.94;4960667;28;20050;-43
2024/01/01 09:07:46;;;;;;;2.72;1.52;;;;;;;19.67;45.28;100197.28;4958093;28;20058;-43
2024/01/01 09:10:12;;;;;;;5.60;1.65;;;;;;;19.69;46.00;100203.28;4961734;28;20062;-42
2024/01/01 09:12:39;;;;;;;3.28;1.20;;;;;;;19.68;45.71;100212.38;4959715;28;20134;-43
2024/01/01 09:15:06;;;;;;;3.70;1.40;;;;;;;19.67;45.84;100218.78;4958838;28;20397;-43
2024/01/01 09:17:33;;;;;;;2.38;1.20;;;;;;;19.65;46.36;100229.69;4960429;28;20055;-43
2024/01/01 09:19:59;;;;;;;2.08;1.05;;;;;;;19.65;46.55;100228.88;4961153;28;20143;-43
2024/01/01 09:22:26;;;;;;;3.22;1.30;;;;;;;19.62;46.35;100232.78;4960234;28;20378;-44
2024/01/01 09:24:53;;;;;;;3.28;1.23;;;;;;;19.61;46.39;100239.13;4956679;28;20105;-45
2024/01/01 09:27:20;;;;;;;1.65;1.08;;;;;;;19.59;46.60;100238.47;4958989;28;20055;-44
2024/01/01 09:29:46;;;;;;;3.42;1.20;;;;;;;19.57;46.27;100247.72;4957533;28;20090;-44
2024/01/01 09:32:13;;;;;;;3.30;1.35;;;;;;;19.54;46.60;100256.13;4956700;28;20411;-44
2024/01/01 09:34:40;;;;;;;4.00;1.00;;;;;;;19.51;46.63;100265.41;4960947;28;20350;-44
2024/01/01 09:37:07;;;;;;;4.68;1.33;;;;;;;19.50;46.82;100258.34;4957273;28;20050;-44
2024/01/01 09:39:34;;;;;;;3.60;1.40;;;;;;;19.46;46.28;100257.88;4958072;28;20051;-44
2024/01/01 09:42:03;;;;;;;3.30;1.20;;;;;;;19.46;46.42;100271.31;4957813;28;20051;-45
2024/01/01 09:44:30;;;;;;;3.97;1.30;;;;;;;19.46;46.89;100265.94;4958649;28;20544;-45
2024/01/01 09:46:57;;;;;;;2.92;1.40;;;;;;;19.45;46.61;100266.94;4959219;28;20404;-44
2024/01/01 09:49:24;;;;;;;4.28;1.70;;;;;;;19.45;47.00;100272.31;4952986;28;20408;-45
2024/01/01 09:51:56;;;;;;;4.05;1.60;;;;;;;19.45;46.28;100282.22;4955293;28;20058;-44
2024/01/01 09:54:24;;;;;;;2.87;1.37;;;;;;;19.45;46.29;100276.84;4958287;28;20054;-44
2024/01/01 09:56:50;;;;;;;4.95;2.05;;;;;;;19.44;46.78;100284.06;4956685;28;20058;-45
2024/01/01 09:59:37;;;;;;;5.38;2.22;;;;;;;19.41;46.44;100291.66;4959306;28;20046;-44
2024/01/01 10:02:05;;;;;;;4.97;2.45;;;;;;;19.41;46.83;100291.66;4957440;28;20051;-44
2024/01/01 10:04:34;;;;;;;6.40;2.50;;;;;;;19.39;47.31;100302.59;4959000;28;20066;-44
2024/01/01 10:07:01;;;;;;;3.80;2.17;;;;;;;19.37;46.56;100303.75;4960456;28;20133;-45
2024/01/01 10:09:29;;;;;;;4.75;2.38;;;;;;;19.33;47.09;100310.50;4957779;28;20098;-45
2024/01/01 10:12:07;;;;;;;5.10;2.40;;;;;;;19.28;47.37;100307.50;4959917;28;20047;-45
2024/01/01 10:14:43;;;;;;;4.00;2.25;;;;;;;19.24;47.18;100318.59;4953912;28;20330;-45
2024/01/01 10:17:11;;;;;;;4.68;2.53;;;;;;;19.21;47.32;100313.56;4960340;28;20314;-44
2024/01/01 10:19:48;;;;;;;6.68;3.13;;;;;;;19.15;47.54;100327.72;4959180;28;20047;-44
2024/01/01 10:22:18;;;;;;;4.82;2.28;;;;;;;19.12;46.94;100325.38;4959056;28;20050;-44
2024/01/01 10:24:55;;;;;;;4.80;2.65;;;;;;;19.08;47.42;100328.56;4963083;28;20101;-44
2024/01/01 10:27:24;;;;;;;4.90;2.67;;;;;;;19.04;47.55;100328.06;4956767;28;20055;-44
2024/01/01 10:29:51;;;;;;;6.50;3.25;;;;;;;19.02;47.57;100331.97;4955495;28;20054;-44
2024/01/01 10:32:18;;;;;;;5.78;3.40;;;;;;;18.99;47.42;100331.28;4957895;28;20133;-43
2024/01/01 10:34:46;;;;;;;6.28;3.53;;;;;;;18.97;47.48;100335.16;4958799;28;20105;-44
2024/01/01 10:37:19;;;;;;;6.00;3.15;;;;;;;18.95;47.74;100337.19;4954637;28;20146;-43
2024/01/01 10:39:47;;;;;;;6.38;3.45;;;;;;;18.92;47.76;100334.84;4957825;28;20222;-44
2024/01/01 10:42:14;;;;;;;7.50;3.95;;;;;;;18.89;47.61;100332.47;4955350;28;20062;-44
2024/01/01 10:44:41;;;;;;;8.68;4.63;;;;;;;18.89;47.78;100329.78;4956024;28;20070;-44
2024/01/01 10:47:09;;;;;;;9.05;5.13;;;;;;;18.85;48.10;100333.84;4959462;28;20634;-44
2024/01/01 10:49:47;;;;;;;8.30;5.05;;;;;;;18.81;47.93;100317.22;4958192;28;20052;-43
2024/01/01 10:52:23;;;;;;;10.18;5.60;;;;;;;18.82;48.12;100332.34;4957104;28;20061;-43
2024/01/01 10:55:20;;;;;;;11.13;6.30;;;;;;;18.77;47.67;100334.69;4958451;28;20172;-44
2024/01/01 10:58:23;;;;;;;9.98;5.97;;;;;;;18.77;47.95;100348.13;4956285;28;20059;-44
2024/01/01 11:01:13;;;;;;;11.13;6.43;;;;;;;18.79;47.67;100345.28;4956730;28;20534;-42
2024/01/01 11:03:46;;;;;;;13.80;8.55;;;;;;;18.80;48.08;100344.25;4956605;28;20105;-43
2024/01/01 11:06:33;;;;;;;15.52;8.77;;;;;;;18.77;48.36;100340.06;4959452;28;20054;-43
2024/01/01 11:09:26;;;;;;;14.60;8.93;;;;;;;18.77;48.57;100342.75;4954113;28;20090;-44
2024/01/01 11:11:54;;;;;;;14.98;9.38;;;;;;;18.82;48.13;100347.63;4952939;28;20047;-43
2024/01/01 11:14:28;;;;;;;16.27;9.75;;;;;;;18.83;48.84;100343.91;4955287;28;20387;-43
2024/01/01 11:16:56;;;;;;;18.67;11.15;;;;;;;18.87;48.90;100353.31;4957889;28;20674;-43
2024/01/01 11:19:42;;;;;;;19.95;12.10;;;;;;;18.88;48.19;100352.28;4952743;28;20059;-44
2024/01/01 11:22:30;;;;;;;23.13;13.10;;;;;;;18.89;48.41;100360.16;4954629;28;20439;-44
2024/01/01 11:25:02;;;;;;;21.08;12.82;;;;;;;18.92;48.19;100361.69;4957565;28;20295;-43
2024/01/01 11:27:34;;;;;;;32.45;18.67;;;;;;;18.91;48.22;100368.91;4957509;28;20454;-43
2024/01/01 11:30:09;;;;;;;36.28;20.90;;;;;;;18.93;48.33;100369.56;4960929;28;20418;-44